sensor_id;sensor_type;location;lat;lon;timestamp;temperature;humidity
56861;DHT22;42744;51.094;3.490;2023-12-04T00:01:49;2.50;99.90
56861;DHT22;42744;51.094;3.490;2023-12-04T00:04:15;2.50;99.90
56861;DHT22;42744;51.094;3.490;2023-12-04T00:06:42;2.40;99.90
56861;DHT22;42744;51.094;3.490;2023-12-04T00:09:08;2.40;99.90
56861;DHT22;42744;51.094;3.490;2023-12-04T00:11:34;2.50;99.90
56861;DHT22;42744;51.094;3.490;2023-12-04T00:14:00;2.50;99.90
56861;DHT22;42744;51.094;3.490;2023-12-04T00:16:26;2.50;99.90
56861;DHT22;42744;51.094;3.490;2023-12-04T00:18:52;2.40;99.90
56861;DHT22;42744;51.094;3.490;2023-12-04T00:21:18;2.40;99.90
56861;DHT22;42744;51.094;3.490;2023-12-04T00:23:43;2.40;99.90
56861;DHT22;42744;51.094;3.490;2023-12-04T00:26:12;2.40;99.90
56861;DHT22;42744;51.094;3.490;2023-12-04T00:28:38;2.40;99.90
56861;DHT22;42744;51.094;3.490;2023-12-04T00:31:04;2.40;99.90
56861;DHT22;42744;51.094;3.490;2023-12-04T00:33:31;2.40;99.90
56861;DHT22;42744;51.094;3.490;2023-12-04T00:35:57;2.40;99.90
56861;DHT22;42744;51.094;3.490;2023-12-04T00:38:23;2.40;99.90
56861;DHT22;42744;51.094;3.490;2023-12-04T00:40:49;2.40;99.90
56861;DHT22;42744;51.094;3.490;2023-12-04T00:43:15;2.40;99.90
56861;DHT22;42744;51.094;3.490;2023-12-04T00:45:40;2.40;99.90
56861;DHT22;42744;51.094;3.490;2023-12-04T00:48:07;2.40;99.90
56861;DHT22;42744;51.094;3.490;2023-12-04T00:50:32;2.40;99.90
56861;DHT22;42744;51.094;3.490;2023-12-04T00:52:58;2.40;99.90
56861;DHT22;42744;51.094;3.490;2023-12-04T00:55:24;2.40;99.90
56861;DHT22;42744;51.094;3.490;2023-12-04T00:57:50;2.40;99.90
56861;DHT22;42744;51.094;3.490;2023-12-04T01:00:16;2.30;99.90
56861;DHT22;42744;51.094;3.490;2023-12-04T01:02:42;2.30;99.90
56861;DHT22;42744;51.094;3.490;2023-12-04T01:05:08;2.30;99.90
56861;DHT22;42744;51.094;3.490;2023-12-04T01:07:34;2.30;99.90
56861;DHT22;42744;51.094;3.490;2023-12-04T01:10:00;2.20;99.90
56861;DHT22;42744;51.094;3.490;2023-12-04T01:12:26;2.20;99.90
56861;DHT22;42744;51.094;3.490;2023-12-04T01:14:52;2.20;99.90
56861;DHT22;42744;51.094;3.490;2023-12-04T01:17:18;2.20;99.90
56861;DHT22;42744;51.094;3.490;2023-12-04T01:19:44;2.20;99.90
56861;DHT22;42744;51.094;3.490;2023-12-04T01:22:10;2.10;99.90
56861;DHT22;42744;51.094;3.490;2023-12-04T01:24:36;2.10;99.90
56861;DHT22;42744;51.094;3.490;2023-12-04T01:27:02;2.10;99.90
56861;DHT22;42744;51.094;3.490;2023-12-04T01:29:28;2.20;99.90
56861;DHT22;42744;51.094;3.490;2023-12-04T01:31:55;2.20;99.90
56861;DHT22;42744;51.094;3.490;2023-12-04T01:34:20;2.20;99.90
56861;DHT22;42744;51.094;3.490;2023-12-04T01:36:46;2.20;99.90
56861;DHT22;42744;51.094;3.490;2023-12-04T01:39:13;2.20;99.90
56861;DHT22;42744;51.094;3.490;2023-12-04T01:41:38;2.20;99.90
56861;DHT22;42744;51.094;3.490;2023-12-04T01:44:06;2.20;99.90
56861;DHT22;42744;51.094;3.490;2023-12-04T01:46:32;2.20;99.90
56861;DHT22;42744;51.094;3.490;2023-12-04T01:48:58;2.20;99.90
56861;DHT22;42744;51.094;3.490;2023-12-04T01:51:26;2.20;99.90
56861;DHT22;42744;51.094;3.490;2023-12-04T01:53:53;2.20;99.90
56861;DHT22;42744;51.094;3.490;2023-12-04T01:56:19;2.20;99.90
56861;DHT22;42744;51.094;3.490;2023-12-04T01:58:46;2.20;99.90
56861;DHT22;42744;51.094;3.490;2023-12-04T02:01:12;2.20;99.90
56861;DHT22;42744;51.094;3.490;2023-12-04T02:03:38;2.20;99.90
56861;DHT22;42744;51.094;3.490;2023-12-04T02:06:07;2.20;99.90
56861;DHT22;42744;51.094;3.490;2023-12-04T02:08:33;2.20;99.90
56861;DHT22;42744;51.094;3.490;2023-12-04T02:10:59;2.30;99.90
56861;DHT22;42744;51.094;3.490;2023-12-04T02:13:25;2.30;99.90
56861;DHT22;42744;51.094;3.490;2023-12-04T02:15:53;2.20;99.90
56861;DHT22;42744;51.094;3.490;2023-12-04T02:18:21;2.20;99.90
56861;DHT22;42744;51.094;3.490;2023-12-04T02:20:48;2.20;99.90
56861;DHT22;42744;51.094;3.490;2023-12-04T02:23:13;2.20;99.90
56861;DHT22;42744;51.094;3.490;2023-12-04T02:25:43;2.30;99.90
56861;DHT22;42744;51.094;3.490;2023-12-04T02:28:12;2.30;99.90
56861;DHT22;42744;51.094;3.490;2023-12-04T02:30:41;2.30;99.90
56861;DHT22;42744;51.094;3.490;2023-12-04T02:33:11;2.30;99.90
56861;DHT22;42744;51.094;3.490;2023-12-04T02:35:39;2.30;99.90
56861;DHT22;42744;51.094;3.490;2023-12-04T02:38:05;2.30;99.90
56861;DHT22;42744;51.094;3.490;2023-12-04T02:40:32;2.40;99.90
56861;DHT22;42744;51.094;3.490;2023-12-04T02:42:58;2.40;99.90
56861;DHT22;42744;51.094;3.490;2023-12-04T02:45:23;2.40;99.90
56861;DHT22;42744;51.094;3.490;2023-12-04T02:47:50;2.40;99.90
56861;DHT22;42744;51.094;3.490;2023-12-04T02:50:15;2.40;99.90
56861;DHT22;42744;51.094;3.490;2023-12-04T02:52:41;2.40;99.90
56861;DHT22;42744;51.094;3.490;2023-12-04T02:55:08;2.30;99.90
56861;DHT22;42744;51.094;3.490;2023-12-04T02:57:33;2.30;99.90
56861;DHT22;42744;51.094;3.490;2023-12-04T02:59:59;2.30;99.90
56861;DHT22;42744;51.094;3.490;2023-12-04T03:02:25;2.30;99.90
56861;DHT22;42744;51.094;3.490;2023-12-04T03:04:51;2.30;99.90
56861;DHT22;42744;51.094;3.490;2023-12-04T03:07:17;2.20;99.90
56861;DHT22;42744;51.094;3.490;2023-12-04T03:09:46;2.20;99.90
56861;DHT22;42744;51.094;3.490;2023-12-04T03:12:11;2.20;99.90
56861;DHT22;42744;51.094;3.490;2023-12-04T03:14:37;2.20;99.90
56861;DHT22;42744;51.094;3.490;2023-12-04T03:17:03;2.20;99.90
56861;DHT22;42744;51.094;3.490;2023-12-04T03:19:29;2.20;99.90
56861;DHT22;42744;51.094;3.490;2023-12-04T03:21:55;2.20;99.90
56861;DHT22;42744;51.094;3.490;2023-12-04T03:24:21;2.20;99.90
56861;DHT22;42744;51.094;3.490;2023-12-04T03:26:47;2.20;99.90
56861;DHT22;42744;51.094;3.490;2023-12-04T03:29:13;2.20;99.90
56861;DHT22;42744;51.094;3.490;2023-12-04T03:31:39;2.20;99.90
56861;DHT22;42744;51.094;3.490;2023-12-04T03:34:05;2.20;99.90
56861;DHT22;42744;51.094;3.490;2023-12-04T03:36:30;2.20;99.90
56861;DHT22;42744;51.094;3.490;2023-12-04T03:38:57;2.20;99.90
56861;DHT22;42744;51.094;3.490;2023-12-04T03:41:22;2.20;99.90
56861;DHT22;42744;51.094;3.490;2023-12-04T03:43:48;2.20;99.90
56861;DHT22;42744;51.094;3.490;2023-12-04T03:46:15;2.20;99.90
56861;DHT22;42744;51.094;3.490;2023-12-04T03:48:40;2.20;99.90
56861;DHT22;42744;51.094;3.490;2023-12-04T03:51:06;2.20;99.90
56861;DHT22;42744;51.094;3.490;2023-12-04T03:53:33;2.20;99.90
56861;DHT22;42744;51.094;3.490;2023-12-04T03:55:59;2.20;99.90
56861;DHT22;42744;51.094;3.490;2023-12-04T03:58:25;2.30;99.90
56861;DHT22;42744;51.094;3.490;2023-12-04T04:00:51;2.30;99.90
56861;DHT22;42744;51.094;3.490;2023-12-04T04:03:17;2.30;99.90
56861;DHT22;42744;51.094;3.490;2023-12-04T04:05:43;2.30;99.90
56861;DHT22;42744;51.094;3.490;2023-12-04T04:08:09;2.30;99.90
56861;DHT22;42744;51.094;3.490;2023-12-04T04:10:35;2.30;99.90
56861;DHT22;42744;51.094;3.490;2023-12-04T04:13:01;2.30;99.90
56861;DHT22;42744;51.094;3.490;2023-12-04T04:15:27;2.30;99.90
56861;DHT22;42744;51.094;3.490;2023-12-04T04:17:53;2.40;99.90
56861;DHT22;42744;51.094;3.490;2023-12-04T04:20:20;2.40;99.90
56861;DHT22;42744;51.094;3.490;2023-12-04T04:22:48;2.40;99.90
56861;DHT22;42744;51.094;3.490;2023-12-04T04:25:15;2.40;99.90
56861;DHT22;42744;51.094;3.490;2023-12-04T04:27:41;2.40;99.90
56861;DHT22;42744;51.094;3.490;2023-12-04T04:30:07;2.40;99.90
56861;DHT22;42744;51.094;3.490;2023-12-04T04:32:34;2.40;99.90
56861;DHT22;42744;51.094;3.490;2023-12-04T04:35:00;2.40;99.90
56861;DHT22;42744;51.094;3.490;2023-12-04T04:37:28;2.40;99.90
56861;DHT22;42744;51.094;3.490;2023-12-04T04:39:56;2.50;99.90
56861;DHT22;42744;51.094;3.490;2023-12-04T04:42:22;2.50;99.90
56861;DHT22;42744;51.094;3.490;2023-12-04T04:44:48;2.50;99.90
56861;DHT22;42744;51.094;3.490;2023-12-04T04:47:14;2.50;99.90
56861;DHT22;42744;51.094;3.490;2023-12-04T04:49:40;2.50;99.90
56861;DHT22;42744;51.094;3.490;2023-12-04T04:52:07;2.50;99.90
56861;DHT22;42744;51.094;3.490;2023-12-04T04:54:33;2.60;99.90
56861;DHT22;42744;51.094;3.490;2023-12-04T04:56:59;2.60;99.90
56861;DHT22;42744;51.094;3.490;2023-12-04T04:59:25;2.60;99.90
56861;DHT22;42744;51.094;3.490;2023-12-04T05:01:56;2.60;99.90
56861;DHT22;42744;51.094;3.490;2023-12-04T05:04:22;2.60;99.90
56861;DHT22;42744;51.094;3.490;2023-12-04T05:06:48;2.70;99.90
56861;DHT22;42744;51.094;3.490;2023-12-04T05:09:14;2.70;99.90
56861;DHT22;42744;51.094;3.490;2023-12-04T05:11:40;2.70;99.90
56861;DHT22;42744;51.094;3.490;2023-12-04T05:14:06;2.80;99.90
56861;DHT22;42744;51.094;3.490;2023-12-04T05:16:32;2.80;99.90
56861;DHT22;42744;51.094;3.490;2023-12-04T05:18:57;2.70;99.90
56861;DHT22;42744;51.094;3.490;2023-12-04T05:21:23;2.80;99.90
56861;DHT22;42744;51.094;3.490;2023-12-04T05:23:49;2.80;99.90
56861;DHT22;42744;51.094;3.490;2023-12-04T05:26:15;2.80;99.90
56861;DHT22;42744;51.094;3.490;2023-12-04T05:28:41;2.80;99.90
56861;DHT22;42744;51.094;3.490;2023-12-04T05:31:07;2.80;99.90
56861;DHT22;42744;51.094;3.490;2023-12-04T05:33:33;2.80;99.90
56861;DHT22;42744;51.094;3.490;2023-12-04T05:36:00;2.80;99.90
56861;DHT22;42744;51.094;3.490;2023-12-04T05:38:26;2.80;99.90
56861;DHT22;42744;51.094;3.490;2023-12-04T05:40:52;2.80;99.90
56861;DHT22;42744;51.094;3.490;2023-12-04T05:43:18;2.80;99.90
56861;DHT22;42744;51.094;3.490;2023-12-04T05:45:45;2.80;99.90
56861;DHT22;42744;51.094;3.490;2023-12-04T05:48:10;2.80;99.90
56861;DHT22;42744;51.094;3.490;2023-12-04T05:50:36;2.90;99.90
56861;DHT22;42744;51.094;3.490;2023-12-04T05:53:02;2.80;99.90
56861;DHT22;42744;51.094;3.490;2023-12-04T05:55:28;2.90;99.90
56861;DHT22;42744;51.094;3.490;2023-12-04T05:57:54;2.90;99.90
56861;DHT22;42744;51.094;3.490;2023-12-04T06:00:20;2.80;99.90
56861;DHT22;42744;51.094;3.490;2023-12-04T06:02:48;2.80;99.90
56861;DHT22;42744;51.094;3.490;2023-12-04T06:05:13;2.90;99.90
56861;DHT22;42744;51.094;3.490;2023-12-04T06:07:39;2.90;99.90
56861;DHT22;42744;51.094;3.490;2023-12-04T06:10:07;2.90;99.90
56861;DHT22;42744;51.094;3.490;2023-12-04T06:12:34;2.80;99.90
56861;DHT22;42744;51.094;3.490;2023-12-04T06:15:00;2.80;99.90
56861;DHT22;42744;51.094;3.490;2023-12-04T06:17:26;2.80;99.90
56861;DHT22;42744;51.094;3.490;2023-12-04T06:19:53;2.80;99.90
56861;DHT22;42744;51.094;3.490;2023-12-04T06:22:20;2.80;99.90
56861;DHT22;42744;51.094;3.490;2023-12-04T06:24:48;2.80;99.90
56861;DHT22;42744;51.094;3.490;2023-12-04T06:27:16;2.80;99.90
56861;DHT22;42744;51.094;3.490;2023-12-04T06:29:44;2.80;99.90
56861;DHT22;42744;51.094;3.490;2023-12-04T06:32:11;2.80;99.90
56861;DHT22;42744;51.094;3.490;2023-12-04T06:34:38;2.80;99.90
56861;DHT22;42744;51.094;3.490;2023-12-04T06:37:09;2.80;99.90
56861;DHT22;42744;51.094;3.490;2023-12-04T06:39:37;2.80;99.90
56861;DHT22;42744;51.094;3.490;2023-12-04T06:42:08;2.80;99.90
56861;DHT22;42744;51.094;3.490;2023-12-04T06:44:34;2.90;99.90
56861;DHT22;42744;51.094;3.490;2023-12-04T06:47:02;2.90;99.90
56861;DHT22;42744;51.094;3.490;2023-12-04T06:49:32;2.90;99.90
56861;DHT22;42744;51.094;3.490;2023-12-04T06:51:59;2.90;99.90
56861;DHT22;42744;51.094;3.490;2023-12-04T06:54:25;2.90;99.90
56861;DHT22;42744;51.094;3.490;2023-12-04T06:56:51;2.90;99.90
56861;DHT22;42744;51.094;3.490;2023-12-04T06:59:18;3.00;99.90
56861;DHT22;42744;51.094;3.490;2023-12-04T07:01:44;3.00;99.90
56861;DHT22;42744;51.094;3.490;2023-12-04T07:04:10;3.00;99.90
56861;DHT22;42744;51.094;3.490;2023-12-04T07:06:37;3.00;99.90
56861;DHT22;42744;51.094;3.490;2023-12-04T07:09:03;2.90;99.90
56861;DHT22;42744;51.094;3.490;2023-12-04T07:11:30;2.90;99.90
56861;DHT22;42744;51.094;3.490;2023-12-04T07:13:56;2.90;99.90
56861;DHT22;42744;51.094;3.490;2023-12-04T07:16:22;2.90;99.90
56861;DHT22;42744;51.094;3.490;2023-12-04T07:18:48;2.90;99.90
56861;DHT22;42744;51.094;3.490;2023-12-04T07:21:14;2.90;99.90
56861;DHT22;42744;51.094;3.490;2023-12-04T07:23:40;2.80;99.90
56861;DHT22;42744;51.094;3.490;2023-12-04T07:26:06;2.80;99.90
56861;DHT22;42744;51.094;3.490;2023-12-04T07:28:33;2.80;99.90
56861;DHT22;42744;51.094;3.490;2023-12-04T07:30:59;2.70;99.90
56861;DHT22;42744;51.094;3.490;2023-12-04T07:33:25;2.70;99.90
56861;DHT22;42744;51.094;3.490;2023-12-04T07:35:51;2.70;99.90
56861;DHT22;42744;51.094;3.490;2023-12-04T07:38:18;2.70;99.90
56861;DHT22;42744;51.094;3.490;2023-12-04T07:40:45;2.60;99.90
56861;DHT22;42744;51.094;3.490;2023-12-04T07:43:11;2.70;99.90
56861;DHT22;42744;51.094;3.490;2023-12-04T07:45:37;2.60;99.90
56861;DHT22;42744;51.094;3.490;2023-12-04T07:48:04;2.60;99.90
56861;DHT22;42744;51.094;3.490;2023-12-04T07:50:30;2.60;99.90
56861;DHT22;42744;51.094;3.490;2023-12-04T07:52:56;2.60;99.90
56861;DHT22;42744;51.094;3.490;2023-12-04T07:55:22;2.50;99.90
56861;DHT22;42744;51.094;3.490;2023-12-04T07:57:47;2.50;99.90
56861;DHT22;42744;51.094;3.490;2023-12-04T08:00:14;2.50;99.90
56861;DHT22;42744;51.094;3.490;2023-12-04T08:02:40;2.50;99.90
56861;DHT22;42744;51.094;3.490;2023-12-04T08:05:08;2.50;99.90
56861;DHT22;42744;51.094;3.490;2023-12-04T08:07:33;2.50;99.90
56861;DHT22;42744;51.094;3.490;2023-12-04T08:10:00;2.50;99.90
56861;DHT22;42744;51.094;3.490;2023-12-04T08:12:26;2.60;99.90
56861;DHT22;42744;51.094;3.490;2023-12-04T08:14:52;2.60;99.90
56861;DHT22;42744;51.094;3.490;2023-12-04T08:17:19;2.60;99.90
56861;DHT22;42744;51.094;3.490;2023-12-04T08:19:44;2.60;99.90
56861;DHT22;42744;51.094;3.490;2023-12-04T08:22:10;2.60;99.90
56861;DHT22;42744;51.094;3.490;2023-12-04T08:24:37;2.60;99.90
56861;DHT22;42744;51.094;3.490;2023-12-04T08:27:02;2.60;99.90
56861;DHT22;42744;51.094;3.490;2023-12-04T08:29:28;2.70;99.90
56861;DHT22;42744;51.094;3.490;2023-12-04T08:31:54;2.70;99.90
56861;DHT22;42744;51.094;3.490;2023-12-04T08:34:20;2.70;99.90
56861;DHT22;42744;51.094;3.490;2023-12-04T08:36:46;2.70;99.90
56861;DHT22;42744;51.094;3.490;2023-12-04T08:39:13;2.70;99.90
56861;DHT22;42744;51.094;3.490;2023-12-04T08:41:38;2.70;99.90
56861;DHT22;42744;51.094;3.490;2023-12-04T08:44:04;2.70;99.90
56861;DHT22;42744;51.094;3.490;2023-12-04T08:46:31;2.70;99.90
56861;DHT22;42744;51.094;3.490;2023-12-04T08:48:56;2.70;99.90
56861;DHT22;42744;51.094;3.490;2023-12-04T08:51:22;2.80;99.90
56861;DHT22;42744;51.094;3.490;2023-12-04T08:53:48;2.80;99.90
56861;DHT22;42744;51.094;3.490;2023-12-04T08:56:14;2.80;99.90
56861;DHT22;42744;51.094;3.490;2023-12-04T08:58:40;2.80;99.90
56861;DHT22;42744;51.094;3.490;2023-12-04T09:01:06;2.80;99.90
56861;DHT22;42744;51.094;3.490;2023-12-04T09:03:32;2.80;99.90
56861;DHT22;42744;51.094;3.490;2023-12-04T09:05:58;2.80;99.90
56861;DHT22;42744;51.094;3.490;2023-12-04T09:08:24;2.90;99.90
56861;DHT22;42744;51.094;3.490;2023-12-04T09:10:53;2.80;99.90
56861;DHT22;42744;51.094;3.490;2023-12-04T09:13:19;2.80;99.90
56861;DHT22;42744;51.094;3.490;2023-12-04T09:15:45;2.80;99.90
56861;DHT22;42744;51.094;3.490;2023-12-04T09:18:11;2.80;99.90
56861;DHT22;42744;51.094;3.490;2023-12-04T09:20:37;2.80;99.90
56861;DHT22;42744;51.094;3.490;2023-12-04T09:23:03;2.90;99.90
56861;DHT22;42744;51.094;3.490;2023-12-04T09:25:29;2.90;99.90
56861;DHT22;42744;51.094;3.490;2023-12-04T09:27:55;2.90;99.90
56861;DHT22;42744;51.094;3.490;2023-12-04T09:30:21;2.90;99.90
56861;DHT22;42744;51.094;3.490;2023-12-04T09:32:47;2.90;99.90
56861;DHT22;42744;51.094;3.490;2023-12-04T09:35:13;2.90;99.90
56861;DHT22;42744;51.094;3.490;2023-12-04T09:37:39;2.90;99.90
56861;DHT22;42744;51.094;3.490;2023-12-04T09:40:05;2.90;99.90
56861;DHT22;42744;51.094;3.490;2023-12-04T09:42:32;2.90;99.90
56861;DHT22;42744;51.094;3.490;2023-12-04T09:44:59;2.90;99.90
56861;DHT22;42744;51.094;3.490;2023-12-04T09:47:27;2.90;99.90
56861;DHT22;42744;51.094;3.490;2023-12-04T09:49:56;2.90;99.90
56861;DHT22;42744;51.094;3.490;2023-12-04T09:52:22;3.00;99.90
56861;DHT22;42744;51.094;3.490;2023-12-04T09:54:50;3.00;99.90
56861;DHT22;42744;51.094;3.490;2023-12-04T09:57:16;3.00;99.90
56861;DHT22;42744;51.094;3.490;2023-12-04T09:59:44;3.00;99.90
56861;DHT22;42744;51.094;3.490;2023-12-04T10:02:11;3.00;99.90
56861;DHT22;42744;51.094;3.490;2023-12-04T10:04:37;3.00;99.90
56861;DHT22;42744;51.094;3.490;2023-12-04T10:07:03;3.10;99.90
56861;DHT22;42744;51.094;3.490;2023-12-04T10:09:30;3.10;99.90
56861;DHT22;42744;51.094;3.490;2023-12-04T10:11:56;3.10;99.90
56861;DHT22;42744;51.094;3.490;2023-12-04T10:14:23;3.10;99.90
56861;DHT22;42744;51.094;3.490;2023-12-04T10:16:49;3.10;99.90
56861;DHT22;42744;51.094;3.490;2023-12-04T10:19:19;3.10;99.90
56861;DHT22;42744;51.094;3.490;2023-12-04T10:21:47;3.00;99.90
56861;DHT22;42744;51.094;3.490;2023-12-04T10:24:33;3.00;99.90
56861;DHT22;42744;51.094;3.490;2023-12-04T10:27:05;3.00;99.90
56861;DHT22;42744;51.094;3.490;2023-12-04T10:29:49;3.00;99.90
56861;DHT22;42744;51.094;3.490;2023-12-04T10:32:18;2.90;99.90
56861;DHT22;42744;51.094;3.490;2023-12-04T10:34:48;2.90;99.90
56861;DHT22;42744;51.094;3.490;2023-12-04T10:37:15;2.90;99.90
56861;DHT22;42744;51.094;3.490;2023-12-04T10:39:51;2.90;99.90
56861;DHT22;42744;51.094;3.490;2023-12-04T10:44:54;2.90;99.90
56861;DHT22;42744;51.094;3.490;2023-12-04T10:47:21;3.00;99.90
56861;DHT22;42744;51.094;3.490;2023-12-04T10:49:49;3.00;99.90
56861;DHT22;42744;51.094;3.490;2023-12-04T10:52:17;3.00;99.90
56861;DHT22;42744;51.094;3.490;2023-12-04T10:54:46;3.00;99.90
56861;DHT22;42744;51.094;3.490;2023-12-04T10:57:13;3.00;99.90
56861;DHT22;42744;51.094;3.490;2023-12-04T10:59:43;3.10;99.90
56861;DHT22;42744;51.094;3.490;2023-12-04T11:02:17;3.00;99.90
56861;DHT22;42744;51.094;3.490;2023-12-04T11:04:49;3.10;99.90
56861;DHT22;42744;51.094;3.490;2023-12-04T11:07:18;3.10;99.90
56861;DHT22;42744;51.094;3.490;2023-12-04T11:09:46;3.10;99.90
56861;DHT22;42744;51.094;3.490;2023-12-04T11:12:17;3.10;99.90
56861;DHT22;42744;51.094;3.490;2023-12-04T11:14:48;3.20;99.90
56861;DHT22;42744;51.094;3.490;2023-12-04T11:17:17;3.20;99.90
56861;DHT22;42744;51.094;3.490;2023-12-04T11:20:02;3.20;99.90
56861;DHT22;42744;51.094;3.490;2023-12-04T11:22:29;3.30;99.90
56861;DHT22;42744;51.094;3.490;2023-12-04T11:24:55;3.30;99.90
56861;DHT22;42744;51.094;3.490;2023-12-04T11:27:22;3.30;99.90
56861;DHT22;42744;51.094;3.490;2023-12-04T11:29:50;3.30;99.90
56861;DHT22;42744;51.094;3.490;2023-12-04T11:32:17;3.30;99.90
56861;DHT22;42744;51.094;3.490;2023-12-04T11:35:06;3.30;99.90
56861;DHT22;42744;51.094;3.490;2023-12-04T11:37:38;3.40;99.90
56861;DHT22;42744;51.094;3.490;2023-12-04T11:40:04;3.30;99.90
56861;DHT22;42744;51.094;3.490;2023-12-04T11:42:30;3.40;99.90
56861;DHT22;42744;51.094;3.490;2023-12-04T11:44:59;3.30;99.90
56861;DHT22;42744;51.094;3.490;2023-12-04T11:47:28;3.40;99.90
56861;DHT22;42744;51.094;3.490;2023-12-04T11:49:54;3.40;99.90
56861;DHT22;42744;51.094;3.490;2023-12-04T11:52:32;3.40;99.90
56861;DHT22;42744;51.094;3.490;2023-12-04T11:55:03;3.40;99.90
56861;DHT22;42744;51.094;3.490;2023-12-04T11:57:40;3.40;99.90
56861;DHT22;42744;51.094;3.490;2023-12-04T12:05:23;3.40;99.90
56861;DHT22;42744;51.094;3.490;2023-12-04T12:07:49;3.50;99.90
56861;DHT22;42744;51.094;3.490;2023-12-04T12:10:16;3.50;99.90
56861;DHT22;42744;51.094;3.490;2023-12-04T12:12:43;3.50;99.90
56861;DHT22;42744;51.094;3.490;2023-12-04T12:15:12;3.50;99.90
56861;DHT22;42744;51.094;3.490;2023-12-04T12:17:40;3.60;99.90
56861;DHT22;42744;51.094;3.490;2023-12-04T12:20:11;3.60;99.90
56861;DHT22;42744;51.094;3.490;2023-12-04T12:22:38;3.60;99.90
56861;DHT22;42744;51.094;3.490;2023-12-04T12:25:07;3.60;99.90
56861;DHT22;42744;51.094;3.490;2023-12-04T12:27:34;3.70;99.90
56861;DHT22;42744;51.094;3.490;2023-12-04T12:30:00;3.70;99.90
56861;DHT22;42744;51.094;3.490;2023-12-04T12:32:27;3.70;99.90
56861;DHT22;42744;51.094;3.490;2023-12-04T12:34:53;3.70;99.90
56861;DHT22;42744;51.094;3.490;2023-12-04T12:37:21;3.70;99.90
56861;DHT22;42744;51.094;3.490;2023-12-04T12:39:46;3.70;99.90
56861;DHT22;42744;51.094;3.490;2023-12-04T12:42:21;3.80;99.90
56861;DHT22;42744;51.094;3.490;2023-12-04T12:44:47;3.80;99.90
56861;DHT22;42744;51.094;3.490;2023-12-04T12:47:15;3.90;99.90
56861;DHT22;42744;51.094;3.490;2023-12-04T12:49:41;3.90;99.90
56861;DHT22;42744;51.094;3.490;2023-12-04T12:52:07;3.90;99.90
56861;DHT22;42744;51.094;3.490;2023-12-04T12:54:40;4.00;99.90
56861;DHT22;42744;51.094;3.490;2023-12-04T12:57:06;4.00;99.90
56861;DHT22;42744;51.094;3.490;2023-12-04T12:59:33;4.00;99.90
56861;DHT22;42744;51.094;3.490;2023-12-04T13:02:00;4.00;99.90
56861;DHT22;42744;51.094;3.490;2023-12-04T13:04:34;4.10;99.90
56861;DHT22;42744;51.094;3.490;2023-12-04T13:07:00;4.10;99.90
56861;DHT22;42744;51.094;3.490;2023-12-04T13:09:26;4.10;99.90
56861;DHT22;42744;51.094;3.490;2023-12-04T13:11:53;4.20;99.90
56861;DHT22;42744;51.094;3.490;2023-12-04T13:14:19;4.20;99.90
56861;DHT22;42744;51.094;3.490;2023-12-04T13:16:45;4.20;99.90
56861;DHT22;42744;51.094;3.490;2023-12-04T13:19:11;4.20;99.90
56861;DHT22;42744;51.094;3.490;2023-12-04T13:21:37;4.20;99.90
56861;DHT22;42744;51.094;3.490;2023-12-04T13:24:03;4.20;99.90
56861;DHT22;42744;51.094;3.490;2023-12-04T13:26:33;4.20;99.90
56861;DHT22;42744;51.094;3.490;2023-12-04T13:28:59;4.20;99.90
56861;DHT22;42744;51.094;3.490;2023-12-04T13:31:25;4.20;99.90
56861;DHT22;42744;51.094;3.490;2023-12-04T13:33:53;4.20;99.90
56861;DHT22;42744;51.094;3.490;2023-12-04T13:36:20;4.20;99.90
56861;DHT22;42744;51.094;3.490;2023-12-04T13:38:46;4.10;99.90
56861;DHT22;42744;51.094;3.490;2023-12-04T13:41:12;4.10;99.90
56861;DHT22;42744;51.094;3.490;2023-12-04T13:44:05;4.10;99.90
56861;DHT22;42744;51.094;3.490;2023-12-04T13:46:31;4.10;99.90
56861;DHT22;42744;51.094;3.490;2023-12-04T13:48:58;4.10;99.90
56861;DHT22;42744;51.094;3.490;2023-12-04T13:51:24;4.10;99.90
56861;DHT22;42744;51.094;3.490;2023-12-04T13:53:51;4.10;99.90
56861;DHT22;42744;51.094;3.490;2023-12-04T13:56:22;4.10;99.90
56861;DHT22;42744;51.094;3.490;2023-12-04T13:58:52;4.10;99.90
56861;DHT22;42744;51.094;3.490;2023-12-04T14:01:26;4.10;99.90
56861;DHT22;42744;51.094;3.490;2023-12-04T14:03:58;4.10;99.90
56861;DHT22;42744;51.094;3.490;2023-12-04T14:06:30;4.20;99.90
56861;DHT22;42744;51.094;3.490;2023-12-04T14:08:58;4.10;99.90
56861;DHT22;42744;51.094;3.490;2023-12-04T14:11:24;4.20;99.90
56861;DHT22;42744;51.094;3.490;2023-12-04T14:13:50;4.20;99.90
56861;DHT22;42744;51.094;3.490;2023-12-04T14:16:17;4.20;99.90
56861;DHT22;42744;51.094;3.490;2023-12-04T14:18:43;4.20;99.90
56861;DHT22;42744;51.094;3.490;2023-12-04T14:21:09;4.20;99.90
56861;DHT22;42744;51.094;3.490;2023-12-04T14:23:36;4.20;99.90
56861;DHT22;42744;51.094;3.490;2023-12-04T14:26:02;4.20;99.90
56861;DHT22;42744;51.094;3.490;2023-12-04T14:28:28;4.20;99.90
56861;DHT22;42744;51.094;3.490;2023-12-04T14:30:54;4.20;99.90
56861;DHT22;42744;51.094;3.490;2023-12-04T14:33:21;4.20;99.90
56861;DHT22;42744;51.094;3.490;2023-12-04T14:35:47;4.20;99.90
56861;DHT22;42744;51.094;3.490;2023-12-04T14:38:13;4.20;99.90
56861;DHT22;42744;51.094;3.490;2023-12-04T14:40:40;4.20;99.90
56861;DHT22;42744;51.094;3.490;2023-12-04T14:43:06;4.20;99.90
56861;DHT22;42744;51.094;3.490;2023-12-04T14:45:35;4.20;99.90
56861;DHT22;42744;51.094;3.490;2023-12-04T14:48:05;4.10;99.90
56861;DHT22;42744;51.094;3.490;2023-12-04T14:50:34;4.20;99.90
56861;DHT22;42744;51.094;3.490;2023-12-04T14:53:05;4.10;99.90
56861;DHT22;42744;51.094;3.490;2023-12-04T14:56:03;4.20;99.90
56861;DHT22;42744;51.094;3.490;2023-12-04T14:58:38;4.10;99.90
56861;DHT22;42744;51.094;3.490;2023-12-04T15:01:11;4.10;99.90
56861;DHT22;42744;51.094;3.490;2023-12-04T15:03:56;4.00;99.90
56861;DHT22;42744;51.094;3.490;2023-12-04T15:06:44;4.00;99.90
56861;DHT22;42744;51.094;3.490;2023-12-04T15:09:28;4.00;99.90
56861;DHT22;42744;51.094;3.490;2023-12-04T15:12:06;4.00;99.90
56861;DHT22;42744;51.094;3.490;2023-12-04T15:14:51;4.00;99.90
56861;DHT22;42744;51.094;3.490;2023-12-04T15:17:20;4.00;99.90
56861;DHT22;42744;51.094;3.490;2023-12-04T15:20:13;4.00;99.90
56861;DHT22;42744;51.094;3.490;2023-12-04T15:22:58;4.00;99.90
56861;DHT22;42744;51.094;3.490;2023-12-04T15:25:25;4.00;99.90
56861;DHT22;42744;51.094;3.490;2023-12-04T15:27:52;3.90;99.90
56861;DHT22;42744;51.094;3.490;2023-12-04T15:30:18;3.90;99.90
56861;DHT22;42744;51.094;3.490;2023-12-04T15:32:44;3.90;99.90
56861;DHT22;42744;51.094;3.490;2023-12-04T15:35:09;3.90;99.90
56861;DHT22;42744;51.094;3.490;2023-12-04T15:37:35;4.00;99.90
56861;DHT22;42744;51.094;3.490;2023-12-04T15:40:02;3.90;99.90
56861;DHT22;42744;51.094;3.490;2023-12-04T15:42:27;3.90;99.90
56861;DHT22;42744;51.094;3.490;2023-12-04T15:44:54;3.90;99.90
56861;DHT22;42744;51.094;3.490;2023-12-04T15:47:20;4.00;99.90
56861;DHT22;42744;51.094;3.490;2023-12-04T15:49:47;4.00;99.90
56861;DHT22;42744;51.094;3.490;2023-12-04T15:52:13;4.00;99.90
56861;DHT22;42744;51.094;3.490;2023-12-04T15:54:39;4.00;99.90